< < Back
Terminal Aerodrome Forecast


Current Version              Previous Versions:   1  2  3  4  5  6  7  8  9  

Terminal Aerodrome Forecast

331
FTUS42 KJAX 260400 AAD
TAFSSI
TAF AMD
KSSI 260436Z 2605/2624 36012KT 6SM -RA BR OVC004
     FM260900 28010KT 4SM BR VCSH BKN003
     FM261500 28012G25KT P6SM BKN010
     FM261900 29012G20KT P6SM FEW010=



Latest METAR

154
SAUS70 KWBC 261100 RRC
MTRSSI
METAR KSSI 261053Z AUTO 31016G21KT 4SM -RA BR BKN009 OVC029 09/08 A2995
RMK AO2 RAE08B30 SLP142 P0001 T00940083


USA.gov is the U.S. government's official web portal to all federal, state and local government web resources and services.